sensor_id;sensor_type;location;lat;lon;timestamp;temperature;humidity
20204;DHT22;10261;49.010;12.034;2023-03-01T00:00:23;3.90;99.80
20204;DHT22;10261;49.010;12.034;2023-03-01T00:01:27;3.90;99.90
20204;DHT22;10261;49.010;12.034;2023-03-01T00:02:33;3.90;99.80
20204;DHT22;10261;49.010;12.034;2023-03-01T00:03:36;3.70;99.90
20204;DHT22;10261;49.010;12.034;2023-03-01T00:04:39;3.80;99.90
20204;DHT22;10261;49.010;12.034;2023-03-01T00:05:44;3.80;99.90
20204;DHT22;10261;49.010;12.034;2023-03-01T00:06:47;3.80;99.90
20204;DHT22;10261;49.010;12.034;2023-03-01T00:07:52;3.80;99.90
20204;DHT22;10261;49.010;12.034;2023-03-01T00:08:55;3.80;99.90
20204;DHT22;10261;49.010;12.034;2023-03-01T00:09:57;3.80;99.90
20204;DHT22;10261;49.010;12.034;2023-03-01T00:11:01;3.90;99.90
20204;DHT22;10261;49.010;12.034;2023-03-01T00:12:06;3.90;99.90
20204;DHT22;10261;49.010;12.034;2023-03-01T00:13:09;3.90;99.90
20204;DHT22;10261;49.010;12.034;2023-03-01T00:14:11;4.00;99.90
20204;DHT22;10261;49.010;12.034;2023-03-01T00:15:14;4.00;99.90
20204;DHT22;10261;49.010;12.034;2023-03-01T00:16:18;4.00;99.70
20204;DHT22;10261;49.010;12.034;2023-03-01T00:17:21;4.00;99.40
20204;DHT22;10261;49.010;12.034;2023-03-01T00:18:24;4.00;99.40
20204;DHT22;10261;49.010;12.034;2023-03-01T00:19:26;4.10;99.50
20204;DHT22;10261;49.010;12.034;2023-03-01T00:20:29;4.20;99.70
20204;DHT22;10261;49.010;12.034;2023-03-01T00:21:31;4.20;99.50
20204;DHT22;10261;49.010;12.034;2023-03-01T00:22:35;4.20;99.20
20204;DHT22;10261;49.010;12.034;2023-03-01T00:23:38;4.20;98.90
20204;DHT22;10261;49.010;12.034;2023-03-01T00:24:41;4.20;98.80
20204;DHT22;10261;49.010;12.034;2023-03-01T00:25:44;4.20;99.20
20204;DHT22;10261;49.010;12.034;2023-03-01T00:26:46;4.20;99.10
20204;DHT22;10261;49.010;12.034;2023-03-01T00:27:50;4.20;99.20
20204;DHT22;10261;49.010;12.034;2023-03-01T00:28:52;4.20;99.10
20204;DHT22;10261;49.010;12.034;2023-03-01T00:29:57;4.20;98.90
20204;DHT22;10261;49.010;12.034;2023-03-01T00:31:03;4.20;99.20
20204;DHT22;10261;49.010;12.034;2023-03-01T00:32:06;4.20;99.60
20204;DHT22;10261;49.010;12.034;2023-03-01T00:33:09;4.20;99.30
20204;DHT22;10261;49.010;12.034;2023-03-01T00:34:11;4.10;99.20
20204;DHT22;10261;49.010;12.034;2023-03-01T00:35:14;5.80;99.90
20204;DHT22;10261;49.010;12.034;2023-03-01T00:36:16;4.10;99.70
20204;DHT22;10261;49.010;12.034;2023-03-01T00:37:19;4.20;99.70
20204;DHT22;10261;49.010;12.034;2023-03-01T00:38:21;4.20;99.90
20204;DHT22;10261;49.010;12.034;2023-03-01T00:39:24;4.00;99.60
20204;DHT22;10261;49.010;12.034;2023-03-01T00:40:27;4.00;99.90
20204;DHT22;10261;49.010;12.034;2023-03-01T00:41:30;3.90;99.90
20204;DHT22;10261;49.010;12.034;2023-03-01T00:42:32;3.90;99.90
20204;DHT22;10261;49.010;12.034;2023-03-01T00:43:36;4.00;99.90
20204;DHT22;10261;49.010;12.034;2023-03-01T00:44:38;4.00;99.90
20204;DHT22;10261;49.010;12.034;2023-03-01T00:45:42;3.90;99.90
20204;DHT22;10261;49.010;12.034;2023-03-01T00:46:43;3.80;99.90
20204;DHT22;10261;49.010;12.034;2023-03-01T00:47:47;3.80;99.90
20204;DHT22;10261;49.010;12.034;2023-03-01T00:48:50;3.90;99.90
20204;DHT22;10261;49.010;12.034;2023-03-01T00:49:53;3.90;99.90
20204;DHT22;10261;49.010;12.034;2023-03-01T00:51:58;3.90;99.90
20204;DHT22;10261;49.010;12.034;2023-03-01T00:53:00;3.90;99.90
20204;DHT22;10261;49.010;12.034;2023-03-01T00:54:03;3.90;99.90
20204;DHT22;10261;49.010;12.034;2023-03-01T00:55:07;3.80;99.90
20204;DHT22;10261;49.010;12.034;2023-03-01T00:56:12;3.90;99.90
20204;DHT22;10261;49.010;12.034;2023-03-01T00:57:14;3.90;99.90
20204;DHT22;10261;49.010;12.034;2023-03-01T00:58:17;3.80;99.90
20204;DHT22;10261;49.010;12.034;2023-03-01T00:59:20;3.80;99.90
20204;DHT22;10261;49.010;12.034;2023-03-01T01:00:23;3.80;99.90
20204;DHT22;10261;49.010;12.034;2023-03-01T01:01:27;3.80;99.90
20204;DHT22;10261;49.010;12.034;2023-03-01T01:02:33;3.80;99.90
20204;DHT22;10261;49.010;12.034;2023-03-01T01:03:35;3.90;99.90
20204;DHT22;10261;49.010;12.034;2023-03-01T01:04:38;3.80;99.90
20204;DHT22;10261;49.010;12.034;2023-03-01T01:05:40;3.70;99.90
20204;DHT22;10261;49.010;12.034;2023-03-01T01:06:44;3.70;99.90
20204;DHT22;10261;49.010;12.034;2023-03-01T01:07:47;3.80;99.90
20204;DHT22;10261;49.010;12.034;2023-03-01T01:08:51;3.80;99.90
20204;DHT22;10261;49.010;12.034;2023-03-01T01:09:53;3.90;99.90
20204;DHT22;10261;49.010;12.034;2023-03-01T01:10:56;3.90;99.90
20204;DHT22;10261;49.010;12.034;2023-03-01T01:11:58;3.90;99.90
20204;DHT22;10261;49.010;12.034;2023-03-01T01:13:01;4.00;99.90
20204;DHT22;10261;49.010;12.034;2023-03-01T01:14:04;4.00;99.90
20204;DHT22;10261;49.010;12.034;2023-03-01T01:15:09;3.90;99.90
20204;DHT22;10261;49.010;12.034;2023-03-01T01:16:15;3.90;99.70
20204;DHT22;10261;49.010;12.034;2023-03-01T01:17:26;3.90;99.90
20204;DHT22;10261;49.010;12.034;2023-03-01T01:18:28;3.90;99.90
20204;DHT22;10261;49.010;12.034;2023-03-01T01:19:31;4.00;99.40
20204;DHT22;10261;49.010;12.034;2023-03-01T01:20:35;3.90;99.40
20204;DHT22;10261;49.010;12.034;2023-03-01T01:21:38;3.90;99.40
20204;DHT22;10261;49.010;12.034;2023-03-01T01:22:41;4.00;99.40
20204;DHT22;10261;49.010;12.034;2023-03-01T01:23:44;4.00;99.00
20204;DHT22;10261;49.010;12.034;2023-03-01T01:24:47;4.10;99.40
20204;DHT22;10261;49.010;12.034;2023-03-01T01:25:49;4.20;99.50
20204;DHT22;10261;49.010;12.034;2023-03-01T01:26:52;4.30;99.10
20204;DHT22;10261;49.010;12.034;2023-03-01T01:27:54;4.20;98.70
20204;DHT22;10261;49.010;12.034;2023-03-01T01:28:57;4.20;98.70
20204;DHT22;10261;49.010;12.034;2023-03-01T01:29:59;4.20;98.90
20204;DHT22;10261;49.010;12.034;2023-03-01T01:31:04;4.20;98.50
20204;DHT22;10261;49.010;12.034;2023-03-01T01:32:06;4.20;98.80
20204;DHT22;10261;49.010;12.034;2023-03-01T01:33:09;4.20;98.80
20204;DHT22;10261;49.010;12.034;2023-03-01T01:34:13;4.20;98.90
20204;DHT22;10261;49.010;12.034;2023-03-01T01:35:17;4.20;99.10
20204;DHT22;10261;49.010;12.034;2023-03-01T01:36:19;4.10;98.90
20204;DHT22;10261;49.010;12.034;2023-03-01T01:37:22;4.00;98.70
20204;DHT22;10261;49.010;12.034;2023-03-01T01:38:24;4.00;98.60
20204;DHT22;10261;49.010;12.034;2023-03-01T01:40:30;4.10;98.80
20204;DHT22;10261;49.010;12.034;2023-03-01T01:41:33;4.10;98.70
20204;DHT22;10261;49.010;12.034;2023-03-01T01:42:35;4.10;98.70
20204;DHT22;10261;49.010;12.034;2023-03-01T01:43:39;4.10;99.00
20204;DHT22;10261;49.010;12.034;2023-03-01T01:44:44;4.10;99.00
20204;DHT22;10261;49.010;12.034;2023-03-01T01:45:49;4.00;98.80
20204;DHT22;10261;49.010;12.034;2023-03-01T01:46:53;4.00;98.80
20204;DHT22;10261;49.010;12.034;2023-03-01T01:48:00;3.90;98.80
20204;DHT22;10261;49.010;12.034;2023-03-01T01:49:07;3.90;98.70
20204;DHT22;10261;49.010;12.034;2023-03-01T01:50:16;4.00;98.80
20204;DHT22;10261;49.010;12.034;2023-03-01T01:51:22;4.00;98.50
20204;DHT22;10261;49.010;12.034;2023-03-01T01:52:31;4.00;98.70
20204;DHT22;10261;49.010;12.034;2023-03-01T01:53:33;4.10;99.10
20204;DHT22;10261;49.010;12.034;2023-03-01T01:54:42;4.00;98.80
20204;DHT22;10261;49.010;12.034;2023-03-01T01:55:47;4.00;98.30
20204;DHT22;10261;49.010;12.034;2023-03-01T01:56:55;4.00;98.60
20204;DHT22;10261;49.010;12.034;2023-03-01T01:57:59;3.80;98.30
20204;DHT22;10261;49.010;12.034;2023-03-01T01:59:04;3.90;98.50
20204;DHT22;10261;49.010;12.034;2023-03-01T02:00:09;4.00;98.60
20204;DHT22;10261;49.010;12.034;2023-03-01T02:01:13;4.00;98.30
20204;DHT22;10261;49.010;12.034;2023-03-01T02:02:16;3.90;98.50
20204;DHT22;10261;49.010;12.034;2023-03-01T02:03:23;3.90;98.60
20204;DHT22;10261;49.010;12.034;2023-03-01T02:04:26;3.90;98.30
20204;DHT22;10261;49.010;12.034;2023-03-01T02:05:38;3.90;98.40
20204;DHT22;10261;49.010;12.034;2023-03-01T02:06:46;3.80;98.30
20204;DHT22;10261;49.010;12.034;2023-03-01T02:07:52;3.80;98.70
20204;DHT22;10261;49.010;12.034;2023-03-01T02:08:55;3.80;98.50
20204;DHT22;10261;49.010;12.034;2023-03-01T02:10:01;3.80;98.80
20204;DHT22;10261;49.010;12.034;2023-03-01T02:11:03;3.70;98.60
20204;DHT22;10261;49.010;12.034;2023-03-01T02:12:06;3.70;99.00
20204;DHT22;10261;49.010;12.034;2023-03-01T02:13:09;3.70;99.30
20204;DHT22;10261;49.010;12.034;2023-03-01T02:14:13;3.70;99.00
20204;DHT22;10261;49.010;12.034;2023-03-01T02:15:16;3.70;99.00
20204;DHT22;10261;49.010;12.034;2023-03-01T02:16:19;3.70;99.10
20204;DHT22;10261;49.010;12.034;2023-03-01T02:17:23;3.60;99.10
20204;DHT22;10261;49.010;12.034;2023-03-01T02:18:26;3.50;99.10
20204;DHT22;10261;49.010;12.034;2023-03-01T02:19:39;3.50;99.20
20204;DHT22;10261;49.010;12.034;2023-03-01T02:20:52;3.50;99.60
20204;DHT22;10261;49.010;12.034;2023-03-01T02:22:02;3.60;99.70
20204;DHT22;10261;49.010;12.034;2023-03-01T02:23:08;3.60;99.60
20204;DHT22;10261;49.010;12.034;2023-03-01T02:24:18;3.60;99.60
20204;DHT22;10261;49.010;12.034;2023-03-01T02:25:39;3.70;99.50
20204;DHT22;10261;49.010;12.034;2023-03-01T02:26:47;3.60;99.60
20204;DHT22;10261;49.010;12.034;2023-03-01T02:27:57;3.50;99.10
20204;DHT22;10261;49.010;12.034;2023-03-01T02:29:01;3.50;99.20
20204;DHT22;10261;49.010;12.034;2023-03-01T02:30:05;3.60;99.30
20204;DHT22;10261;49.010;12.034;2023-03-01T02:31:09;3.50;99.20
20204;DHT22;10261;49.010;12.034;2023-03-01T02:32:31;3.40;98.80
20204;DHT22;10261;49.010;12.034;2023-03-01T02:33:36;3.50;99.00
20204;DHT22;10261;49.010;12.034;2023-03-01T02:34:39;3.60;99.10
20204;DHT22;10261;49.010;12.034;2023-03-01T02:35:42;3.60;98.80
20204;DHT22;10261;49.010;12.034;2023-03-01T02:36:47;3.60;98.40
20204;DHT22;10261;49.010;12.034;2023-03-01T02:37:50;3.50;98.20
20204;DHT22;10261;49.010;12.034;2023-03-01T02:38:55;3.60;98.00
20204;DHT22;10261;49.010;12.034;2023-03-01T02:40:04;3.60;97.90
20204;DHT22;10261;49.010;12.034;2023-03-01T02:41:08;3.50;98.00
20204;DHT22;10261;49.010;12.034;2023-03-01T02:42:15;3.60;98.00
20204;DHT22;10261;49.010;12.034;2023-03-01T02:43:19;3.50;97.90
20204;DHT22;10261;49.010;12.034;2023-03-01T02:44:25;3.50;98.00
20204;DHT22;10261;49.010;12.034;2023-03-01T02:45:27;3.50;98.40
20204;DHT22;10261;49.010;12.034;2023-03-01T02:46:30;3.50;98.40
20204;DHT22;10261;49.010;12.034;2023-03-01T02:47:33;3.50;98.20
20204;DHT22;10261;49.010;12.034;2023-03-01T02:48:41;3.50;98.20
20204;DHT22;10261;49.010;12.034;2023-03-01T02:50:55;3.30;98.30
20204;DHT22;10261;49.010;12.034;2023-03-01T02:52:23;3.40;98.40
20204;DHT22;10261;49.010;12.034;2023-03-01T02:53:35;3.40;98.30
20204;DHT22;10261;49.010;12.034;2023-03-01T02:54:45;3.50;98.80
20204;DHT22;10261;49.010;12.034;2023-03-01T02:55:49;3.50;98.30
20204;DHT22;10261;49.010;12.034;2023-03-01T02:56:52;3.50;98.30
20204;DHT22;10261;49.010;12.034;2023-03-01T02:57:56;3.40;98.30
20204;DHT22;10261;49.010;12.034;2023-03-01T02:58:59;3.50;98.60
20204;DHT22;10261;49.010;12.034;2023-03-01T03:00:06;3.50;98.80
20204;DHT22;10261;49.010;12.034;2023-03-01T03:01:09;3.50;98.30
20204;DHT22;10261;49.010;12.034;2023-03-01T03:02:20;3.50;98.60
20204;DHT22;10261;49.010;12.034;2023-03-01T03:03:23;3.60;98.70
20204;DHT22;10261;49.010;12.034;2023-03-01T03:04:26;3.50;98.50
20204;DHT22;10261;49.010;12.034;2023-03-01T03:05:30;3.50;98.30
20204;DHT22;10261;49.010;12.034;2023-03-01T03:06:33;3.50;98.10
20204;DHT22;10261;49.010;12.034;2023-03-01T03:07:38;3.40;98.10
20204;DHT22;10261;49.010;12.034;2023-03-01T03:08:42;3.40;98.40
20204;DHT22;10261;49.010;12.034;2023-03-01T03:09:45;3.40;98.40
20204;DHT22;10261;49.010;12.034;2023-03-01T03:10:48;3.50;99.10
20204;DHT22;10261;49.010;12.034;2023-03-01T03:11:50;3.50;98.70
20204;DHT22;10261;49.010;12.034;2023-03-01T03:12:54;3.40;98.60
20204;DHT22;10261;49.010;12.034;2023-03-01T03:15:00;3.40;98.80
20204;DHT22;10261;49.010;12.034;2023-03-01T03:16:04;3.30;98.80
20204;DHT22;10261;49.010;12.034;2023-03-01T03:17:07;3.30;98.90
20204;DHT22;10261;49.010;12.034;2023-03-01T03:18:12;3.30;99.10
20204;DHT22;10261;49.010;12.034;2023-03-01T03:19:16;3.30;98.90
20204;DHT22;10261;49.010;12.034;2023-03-01T03:20:21;3.20;99.10
20204;DHT22;10261;49.010;12.034;2023-03-01T03:21:24;3.40;99.40
20204;DHT22;10261;49.010;12.034;2023-03-01T03:23:30;3.30;99.00
20204;DHT22;10261;49.010;12.034;2023-03-01T03:24:32;3.30;99.30
20204;DHT22;10261;49.010;12.034;2023-03-01T03:25:39;3.30;99.70
20204;DHT22;10261;49.010;12.034;2023-03-01T03:26:41;3.30;99.50
20204;DHT22;10261;49.010;12.034;2023-03-01T03:27:46;3.30;99.10
20204;DHT22;10261;49.010;12.034;2023-03-01T03:28:48;3.20;99.10
20204;DHT22;10261;49.010;12.034;2023-03-01T03:29:51;3.20;99.10
20204;DHT22;10261;49.010;12.034;2023-03-01T03:30:53;3.10;99.00
20204;DHT22;10261;49.010;12.034;2023-03-01T03:31:57;3.00;99.20
20204;DHT22;10261;49.010;12.034;2023-03-01T03:32:59;3.10;99.30
20204;DHT22;10261;49.010;12.034;2023-03-01T03:34:02;3.00;99.20
20204;DHT22;10261;49.010;12.034;2023-03-01T03:35:06;3.00;99.30
20204;DHT22;10261;49.010;12.034;2023-03-01T03:36:16;3.10;99.20
20204;DHT22;10261;49.010;12.034;2023-03-01T03:37:19;3.10;99.00
20204;DHT22;10261;49.010;12.034;2023-03-01T03:39:39;3.00;99.20
20204;DHT22;10261;49.010;12.034;2023-03-01T03:40:43;3.10;99.30
20204;DHT22;10261;49.010;12.034;2023-03-01T03:41:46;3.10;99.00
20204;DHT22;10261;49.010;12.034;2023-03-01T03:42:48;3.10;98.90
20204;DHT22;10261;49.010;12.034;2023-03-01T03:43:51;3.00;99.00
20204;DHT22;10261;49.010;12.034;2023-03-01T03:44:53;3.00;99.20
20204;DHT22;10261;49.010;12.034;2023-03-01T03:45:56;2.90;99.10
20204;DHT22;10261;49.010;12.034;2023-03-01T03:47:00;2.90;99.30
20204;DHT22;10261;49.010;12.034;2023-03-01T03:48:05;2.90;99.30
20204;DHT22;10261;49.010;12.034;2023-03-01T03:49:07;2.90;99.40
20204;DHT22;10261;49.010;12.034;2023-03-01T03:50:11;3.00;99.10
20204;DHT22;10261;49.010;12.034;2023-03-01T03:51:16;3.00;99.00
20204;DHT22;10261;49.010;12.034;2023-03-01T03:52:19;3.00;99.10
20204;DHT22;10261;49.010;12.034;2023-03-01T03:53:22;3.00;99.10
20204;DHT22;10261;49.010;12.034;2023-03-01T03:54:25;3.00;99.30
20204;DHT22;10261;49.010;12.034;2023-03-01T03:55:27;3.00;99.20
20204;DHT22;10261;49.010;12.034;2023-03-01T03:56:32;3.00;99.00
20204;DHT22;10261;49.010;12.034;2023-03-01T03:57:34;3.00;99.00
20204;DHT22;10261;49.010;12.034;2023-03-01T03:58:37;3.00;99.10
20204;DHT22;10261;49.010;12.034;2023-03-01T03:59:40;3.00;99.00
20204;DHT22;10261;49.010;12.034;2023-03-01T04:00:44;2.90;98.90
20204;DHT22;10261;49.010;12.034;2023-03-01T04:01:47;2.90;99.10
20204;DHT22;10261;49.010;12.034;2023-03-01T04:02:51;3.00;99.20
20204;DHT22;10261;49.010;12.034;2023-03-01T04:05:06;3.00;99.30
20204;DHT22;10261;49.010;12.034;2023-03-01T04:06:09;3.00;99.30
20204;DHT22;10261;49.010;12.034;2023-03-01T04:07:12;3.00;99.20
20204;DHT22;10261;49.010;12.034;2023-03-01T04:08:14;3.00;99.40
20204;DHT22;10261;49.010;12.034;2023-03-01T04:09:17;3.00;99.30
20204;DHT22;10261;49.010;12.034;2023-03-01T04:10:19;2.90;99.30
20204;DHT22;10261;49.010;12.034;2023-03-01T04:12:28;2.90;99.40
20204;DHT22;10261;49.010;12.034;2023-03-01T04:13:30;2.80;99.40
20204;DHT22;10261;49.010;12.034;2023-03-01T04:14:32;2.90;99.40
20204;DHT22;10261;49.010;12.034;2023-03-01T04:15:36;2.80;99.30
20204;DHT22;10261;49.010;12.034;2023-03-01T04:16:38;2.90;99.40
20204;DHT22;10261;49.010;12.034;2023-03-01T04:17:43;3.00;99.20
20204;DHT22;10261;49.010;12.034;2023-03-01T04:18:46;2.90;98.90
20204;DHT22;10261;49.010;12.034;2023-03-01T04:19:49;2.90;98.80
20204;DHT22;10261;49.010;12.034;2023-03-01T04:20:52;2.80;98.80
20204;DHT22;10261;49.010;12.034;2023-03-01T04:21:57;2.80;98.90
20204;DHT22;10261;49.010;12.034;2023-03-01T04:23:02;2.90;98.90
20204;DHT22;10261;49.010;12.034;2023-03-01T04:25:15;3.00;99.10
20204;DHT22;10261;49.010;12.034;2023-03-01T04:26:17;3.00;99.00
20204;DHT22;10261;49.010;12.034;2023-03-01T04:27:20;2.90;98.90
20204;DHT22;10261;49.010;12.034;2023-03-01T04:28:24;2.90;99.10
20204;DHT22;10261;49.010;12.034;2023-03-01T04:29:28;2.90;99.10
20204;DHT22;10261;49.010;12.034;2023-03-01T04:30:30;2.90;99.20
20204;DHT22;10261;49.010;12.034;2023-03-01T04:31:37;3.00;99.00
20204;DHT22;10261;49.010;12.034;2023-03-01T04:32:40;2.90;98.90
20204;DHT22;10261;49.010;12.034;2023-03-01T04:33:43;2.80;99.10
20204;DHT22;10261;49.010;12.034;2023-03-01T04:34:49;2.90;99.00
20204;DHT22;10261;49.010;12.034;2023-03-01T04:36:55;2.80;99.30
20204;DHT22;10261;49.010;12.034;2023-03-01T04:37:57;2.70;99.40
20204;DHT22;10261;49.010;12.034;2023-03-01T04:39:00;2.80;99.60
20204;DHT22;10261;49.010;12.034;2023-03-01T04:40:13;2.80;99.50
20204;DHT22;10261;49.010;12.034;2023-03-01T04:41:19;2.80;99.30
20204;DHT22;10261;49.010;12.034;2023-03-01T04:42:23;2.70;99.30
20204;DHT22;10261;49.010;12.034;2023-03-01T04:43:25;2.70;99.40
20204;DHT22;10261;49.010;12.034;2023-03-01T04:44:28;2.70;99.70
20204;DHT22;10261;49.010;12.034;2023-03-01T04:45:31;2.80;99.50
20204;DHT22;10261;49.010;12.034;2023-03-01T04:46:36;2.80;99.70
20204;DHT22;10261;49.010;12.034;2023-03-01T04:47:38;2.90;99.70
20204;DHT22;10261;49.010;12.034;2023-03-01T04:48:43;2.80;99.40
20204;DHT22;10261;49.010;12.034;2023-03-01T04:49:46;2.70;99.30
20204;DHT22;10261;49.010;12.034;2023-03-01T04:50:49;2.70;99.40
20204;DHT22;10261;49.010;12.034;2023-03-01T04:51:52;2.60;99.40
20204;DHT22;10261;49.010;12.034;2023-03-01T04:52:54;2.50;99.40
20204;DHT22;10261;49.010;12.034;2023-03-01T04:54:00;2.70;99.70
20204;DHT22;10261;49.010;12.034;2023-03-01T04:55:03;2.70;99.40
20204;DHT22;10261;49.010;12.034;2023-03-01T04:56:06;2.70;99.40
20204;DHT22;10261;49.010;12.034;2023-03-01T04:58:11;2.70;99.10
20204;DHT22;10261;49.010;12.034;2023-03-01T04:59:14;2.80;99.10
20204;DHT22;10261;49.010;12.034;2023-03-01T05:00:16;2.90;98.90
20204;DHT22;10261;49.010;12.034;2023-03-01T05:01:25;2.80;98.90
20204;DHT22;10261;49.010;12.034;2023-03-01T05:02:27;2.70;98.80
20204;DHT22;10261;49.010;12.034;2023-03-01T05:03:31;2.70;99.00
20204;DHT22;10261;49.010;12.034;2023-03-01T05:04:33;2.70;99.00
20204;DHT22;10261;49.010;12.034;2023-03-01T05:05:38;2.80;99.10
20204;DHT22;10261;49.010;12.034;2023-03-01T05:06:41;2.90;99.00
20204;DHT22;10261;49.010;12.034;2023-03-01T05:07:44;2.80;98.90
20204;DHT22;10261;49.010;12.034;2023-03-01T05:08:46;2.80;99.00
20204;DHT22;10261;49.010;12.034;2023-03-01T05:09:49;2.70;99.00
20204;DHT22;10261;49.010;12.034;2023-03-01T05:10:53;2.60;99.10
20204;DHT22;10261;49.010;12.034;2023-03-01T05:11:56;2.70;99.10
20204;DHT22;10261;49.010;12.034;2023-03-01T05:12:58;2.60;99.10
20204;DHT22;10261;49.010;12.034;2023-03-01T05:14:02;2.60;99.40
20204;DHT22;10261;49.010;12.034;2023-03-01T05:15:05;2.60;99.30
20204;DHT22;10261;49.010;12.034;2023-03-01T05:16:09;2.60;99.60
20204;DHT22;10261;49.010;12.034;2023-03-01T05:18:16;2.70;99.40
20204;DHT22;10261;49.010;12.034;2023-03-01T05:19:19;2.60;99.40
20204;DHT22;10261;49.010;12.034;2023-03-01T05:20:24;2.70;99.20
20204;DHT22;10261;49.010;12.034;2023-03-01T05:21:27;2.80;99.30
20204;DHT22;10261;49.010;12.034;2023-03-01T05:22:31;2.70;99.40
20204;DHT22;10261;49.010;12.034;2023-03-01T05:23:34;2.80;99.20
20204;DHT22;10261;49.010;12.034;2023-03-01T05:24:36;2.70;99.20
20204;DHT22;10261;49.010;12.034;2023-03-01T05:25:40;2.80;98.90
20204;DHT22;10261;49.010;12.034;2023-03-01T05:26:42;2.80;98.90
20204;DHT22;10261;49.010;12.034;2023-03-01T05:27:45;2.80;98.60
20204;DHT22;10261;49.010;12.034;2023-03-01T05:28:47;2.70;98.70
20204;DHT22;10261;49.010;12.034;2023-03-01T05:29:51;2.60;98.80
20204;DHT22;10261;49.010;12.034;2023-03-01T05:30:53;2.60;98.80
20204;DHT22;10261;49.010;12.034;2023-03-01T05:31:58;2.60;98.90
20204;DHT22;10261;49.010;12.034;2023-03-01T05:34:06;2.70;98.80
20204;DHT22;10261;49.010;12.034;2023-03-01T05:35:08;2.70;98.60
20204;DHT22;10261;49.010;12.034;2023-03-01T05:36:12;2.70;98.70
20204;DHT22;10261;49.010;12.034;2023-03-01T05:37:14;2.80;98.50
20204;DHT22;10261;49.010;12.034;2023-03-01T05:38:19;2.80;98.50
20204;DHT22;10261;49.010;12.034;2023-03-01T05:39:23;2.80;98.60
20204;DHT22;10261;49.010;12.034;2023-03-01T05:40:26;2.70;98.50
20204;DHT22;10261;49.010;12.034;2023-03-01T05:41:28;2.70;98.60
20204;DHT22;10261;49.010;12.034;2023-03-01T05:42:31;2.70;98.80
20204;DHT22;10261;49.010;12.034;2023-03-01T05:43:33;2.70;98.70
20204;DHT22;10261;49.010;12.034;2023-03-01T05:44:36;2.80;98.40
20204;DHT22;10261;49.010;12.034;2023-03-01T05:45:40;2.70;98.40
20204;DHT22;10261;49.010;12.034;2023-03-01T05:47:47;2.70;98.30
20204;DHT22;10261;49.010;12.034;2023-03-01T05:48:51;2.70;98.20
20204;DHT22;10261;49.010;12.034;2023-03-01T05:49:53;2.60;98.10
20204;DHT22;10261;49.010;12.034;2023-03-01T05:50:59;2.50;98.40
20204;DHT22;10261;49.010;12.034;2023-03-01T05:52:01;2.50;98.50
20204;DHT22;10261;49.010;12.034;2023-03-01T05:53:07;2.60;98.60
20204;DHT22;10261;49.010;12.034;2023-03-01T05:54:12;2.60;98.50
20204;DHT22;10261;49.010;12.034;2023-03-01T05:55:15;2.70;98.40
20204;DHT22;10261;49.010;12.034;2023-03-01T05:56:18;2.60;98.40
20204;DHT22;10261;49.010;12.034;2023-03-01T05:57:20;2.70;98.50
20204;DHT22;10261;49.010;12.034;2023-03-01T05:58:29;2.70;98.30
20204;DHT22;10261;49.010;12.034;2023-03-01T05:59:35;2.70;98.30
20204;DHT22;10261;49.010;12.034;2023-03-01T06:00:38;2.80;98.30
20204;DHT22;10261;49.010;12.034;2023-03-01T06:01:41;2.80;98.00
20204;DHT22;10261;49.010;12.034;2023-03-01T06:02:44;2.80;98.20
20204;DHT22;10261;49.010;12.034;2023-03-01T06:03:46;2.70;98.30
20204;DHT22;10261;49.010;12.034;2023-03-01T06:04:49;2.80;98.40
20204;DHT22;10261;49.010;12.034;2023-03-01T06:05:56;2.60;98.50
20204;DHT22;10261;49.010;12.034;2023-03-01T06:06:59;2.80;98.70
20204;DHT22;10261;49.010;12.034;2023-03-01T06:08:02;2.80;98.50
20204;DHT22;10261;49.010;12.034;2023-03-01T06:09:05;2.80;98.40
20204;DHT22;10261;49.010;12.034;2023-03-01T06:10:11;2.60;98.40
20204;DHT22;10261;49.010;12.034;2023-03-01T06:11:14;2.70;98.50
20204;DHT22;10261;49.010;12.034;2023-03-01T06:12:17;2.60;98.40
20204;DHT22;10261;49.010;12.034;2023-03-01T06:13:19;2.60;98.80
20204;DHT22;10261;49.010;12.034;2023-03-01T06:14:22;2.60;98.70
20204;DHT22;10261;49.010;12.034;2023-03-01T06:15:25;2.70;98.50
20204;DHT22;10261;49.010;12.034;2023-03-01T06:16:28;2.80;98.50
20204;DHT22;10261;49.010;12.034;2023-03-01T06:17:31;2.70;98.30
20204;DHT22;10261;49.010;12.034;2023-03-01T06:18:34;2.60;98.40
20204;DHT22;10261;49.010;12.034;2023-03-01T06:19:37;2.60;98.80
20204;DHT22;10261;49.010;12.034;2023-03-01T06:20:40;2.70;98.70
20204;DHT22;10261;49.010;12.034;2023-03-01T06:21:42;2.70;98.30
20204;DHT22;10261;49.010;12.034;2023-03-01T06:22:45;2.70;98.70
20204;DHT22;10261;49.010;12.034;2023-03-01T06:23:48;0.90;99.10
20204;DHT22;10261;49.010;12.034;2023-03-01T06:24:51;1.40;99.90
20204;DHT22;10261;49.010;12.034;2023-03-01T06:25:54;1.80;99.90
20204;DHT22;10261;49.010;12.034;2023-03-01T06:26:57;2.10;99.90
20204;DHT22;10261;49.010;12.034;2023-03-01T06:27:59;2.30;99.50
20204;DHT22;10261;49.010;12.034;2023-03-01T06:29:02;2.40;99.50
20204;DHT22;10261;49.010;12.034;2023-03-01T06:30:05;2.50;99.10
20204;DHT22;10261;49.010;12.034;2023-03-01T06:31:08;2.60;98.90
20204;DHT22;10261;49.010;12.034;2023-03-01T06:32:11;2.60;98.80
20204;DHT22;10261;49.010;12.034;2023-03-01T06:33:14;2.60;98.90
20204;DHT22;10261;49.010;12.034;2023-03-01T06:34:16;2.40;98.40
20204;DHT22;10261;49.010;12.034;2023-03-01T06:35:19;1.40;99.00
20204;DHT22;10261;49.010;12.034;2023-03-01T06:37:24;1.60;99.90
20204;DHT22;10261;49.010;12.034;2023-03-01T06:38:26;2.00;99.90
20204;DHT22;10261;49.010;12.034;2023-03-01T06:39:29;2.20;99.90
20204;DHT22;10261;49.010;12.034;2023-03-01T06:40:32;2.50;99.90
20204;DHT22;10261;49.010;12.034;2023-03-01T06:41:38;2.40;99.80
20204;DHT22;10261;49.010;12.034;2023-03-01T06:42:42;2.50;99.40
20204;DHT22;10261;49.010;12.034;2023-03-01T06:44:48;2.70;98.90
20204;DHT22;10261;49.010;12.034;2023-03-01T06:45:51;2.70;98.80
20204;DHT22;10261;49.010;12.034;2023-03-01T06:46:53;2.80;98.90
20204;DHT22;10261;49.010;12.034;2023-03-01T06:48:03;2.90;98.50
20204;DHT22;10261;49.010;12.034;2023-03-01T06:49:10;2.90;98.40
20204;DHT22;10261;49.010;12.034;2023-03-01T06:50:13;2.80;98.20
20204;DHT22;10261;49.010;12.034;2023-03-01T06:51:16;2.80;98.50
20204;DHT22;10261;49.010;12.034;2023-03-01T06:52:19;2.70;98.60
20204;DHT22;10261;49.010;12.034;2023-03-01T06:53:21;2.70;98.70
20204;DHT22;10261;49.010;12.034;2023-03-01T06:54:25;2.70;98.80
20204;DHT22;10261;49.010;12.034;2023-03-01T06:55:27;2.80;98.90
20204;DHT22;10261;49.010;12.034;2023-03-01T06:56:30;2.70;98.80
20204;DHT22;10261;49.010;12.034;2023-03-01T06:57:33;2.80;98.90
20204;DHT22;10261;49.010;12.034;2023-03-01T06:58:36;2.80;98.90
20204;DHT22;10261;49.010;12.034;2023-03-01T06:59:39;2.80;98.90
20204;DHT22;10261;49.010;12.034;2023-03-01T07:00:41;2.80;98.70